メインページ
METAR-TAF:

METAR-TAF

空港 :

ダルエスサラーム, タンザニア

ジュリウス・ニエレレ国際空港

緯度: 06-52S, 経度: 039-12E, 海抜: 55m

現時点の気象観測

当レポートは38分前の01:00(UTC)に作成
の風 10kt
気温 26°C
湿度 89%
気圧 1009 hPa
視程10km以上
高度1600ftの千切れ雲あり

METAR: HTDA 180100Z 01010KT 9999 BKN016 26/24 Q1009 NOSIG

時間: 04:38 (01:38 UTC)

予報

当レポートは2時間38分前の23:00(UTC)に作成
予報は18日の 00時(UTC)から 19日の 06時(UTC)まで有効
北/北東の風 10kt
視程10km以上
高度1800ftの雲は散在している
18日の 00時(UTC)から 18日の 05時(UTC)まで一時的に
の風 10kt
高度1800ftの千切れ雲あり
高度1900ftの雲はほとんどない, 積乱雲.
18日の 10時(UTC)から 18日の 13時(UTC)まで徐々に
北/北東の風 15kt
高度2400ftの雲は散在している
19日の 02時(UTC)から 19日の 05時(UTC)まで徐々に
高度1800ftの雲は散在している
高度8000ftの千切れ雲あり

TAF: HTDA 172300Z 1800/1906 02010KT 9999 SCT018 TEMPO 1800/1805 35010KT TS/SHRA BKN018 FEW019CB BECMG 1810/1813 03015KT SCT024 BECMG 1902/1905 SCT018 BKN080

4,000以上の空港の気象観測と天気予報(METAR報とTAF報)

利用可能な観測所は地図上に黄色い丸と赤い丸で示す。

丸の上にカーソルを重ねると観測所名を参照できる。

次にクリックすると気象観測と天気予報を参照できる。

マップの切り替え:黒色「×」印の緑ボタンをクリックして拡大、「-」印の緑ボタンをクリックして縮小、緑色の三角印をクリックして隣りの地図に切り替え


METAR-TAF: